Time;durP1;ratioP1;P1;durP2;ratioP2;P2;SDS_P1;SDS_P2;PMS_P1;PMS_P2;Temp;Humidity;BMP_temperature;BMP_pressure;BME280_temperature;BME280_humidity;BME280_pressure;Samples;Min_cycle;Max_cycle;Signal;HPM_P1;HPM_P2
2022/12/11 00:01:09;;;;;;;20.20;11.70;;;-1.30;99.90;;;2.44;54.23;96939.69;5005604;28;20045;-56
2022/12/11 00:03:37;;;;;;;19.37;11.53;;;-1.30;99.90;;;2.44;53.94;96939.69;5021148;28;20061;-56
2022/12/11 00:06:08;;;;;;;24.10;13.30;;;-1.30;99.90;;;2.47;53.83;96936.00;5005632;28;20042;-53
2022/12/11 00:08:36;;;;;;;21.27;11.43;;;-1.30;99.90;;;2.46;54.21;96940.44;5005981;28;20050;-55
2022/12/11 00:11:07;;;;;;;20.90;12.07;;;-1.30;99.90;;;2.45;53.81;96932.69;5004708;28;20050;-53
2022/12/11 00:13:34;;;;;;;26.13;13.00;;;-1.30;99.90;;;2.46;54.09;96929.94;5004185;28;20049;-52
2022/12/11 00:16:03;;;;;;;28.20;12.83;;;-1.30;99.90;;;2.45;53.88;96940.56;5005717;28;20038;-56
2022/12/11 00:18:31;;;;;;;23.77;13.63;;;-1.30;99.90;;;2.46;53.95;96937.81;5005426;28;20352;-55
2022/12/11 00:21:04;;;;;;;23.87;12.07;;;-1.30;99.90;;;2.44;53.74;96937.06;5005788;28;20064;-55
2022/12/11 00:23:34;;;;;;;24.08;12.32;;;-1.30;99.90;;;2.44;53.82;96928.38;5005529;28;20049;-56
2022/12/11 00:26:09;;;;;;;25.57;13.10;;;-1.30;99.90;;;2.40;53.87;96943.53;5004084;28;20060;-56
2022/12/11 00:28:37;;;;;;;23.97;12.73;;;-1.30;99.90;;;2.39;54.09;96934.00;5004157;28;20261;-53
2022/12/11 00:31:08;;;;;;;23.20;13.17;;;-1.30;99.90;;;2.36;53.83;96944.75;5003821;28;20052;-55
2022/12/11 00:33:35;;;;;;;22.17;12.77;;;-1.30;99.90;;;2.37;54.07;96933.31;5005317;28;20046;-55
2022/12/11 00:36:16;;;;;;;23.67;13.57;;;-1.30;99.90;;;2.37;54.08;96933.31;5004699;28;20046;-55
2022/12/11 00:38:44;;;;;;;24.87;12.87;;;-1.30;99.90;;;2.36;53.98;96937.75;5004606;28;20046;-54
2022/12/11 00:41:12;;;;;;;23.67;12.63;;;-1.30;99.90;;;2.35;54.46;96937.84;5004742;28;20048;-56
2022/12/11 00:43:40;;;;;;;24.37;12.83;;;-1.30;99.90;;;2.40;54.66;96934.84;5005027;28;20057;-52
2022/12/11 00:46:09;;;;;;;25.53;13.10;;;-1.30;99.90;;;2.42;54.61;96932.91;5005222;28;20371;-56
2022/12/11 00:48:38;;;;;;;23.33;12.13;;;-1.30;99.90;;;2.46;53.93;96932.56;5005098;28;20050;-55
2022/12/11 00:51:06;;;;;;;24.50;12.93;;;-1.30;99.90;;;2.54;54.38;96937.16;5003489;28;20046;-56
2022/12/11 00:53:34;;;;;;;23.50;11.73;;;-1.20;99.90;;;2.56;53.83;96937.88;5003632;28;20050;-56
2022/12/11 00:56:10;;;;;;;25.23;13.63;;;-1.20;99.90;;;2.59;54.09;96934.97;5005071;28;20042;-52
2022/12/11 00:58:38;;;;;;;24.30;12.43;;;-1.10;99.90;;;2.64;54.02;96937.22;5004622;28;20047;-53
2022/12/11 01:01:17;;;;;;;24.63;12.93;;;-1.10;99.90;;;2.67;54.06;96950.09;5003305;28;20038;-55
2022/12/11 01:03:45;;;;;;;25.80;14.33;;;-1.10;99.90;;;2.75;54.27;96953.75;5003895;28;20068;-55
2022/12/11 01:06:17;;;;;;;35.17;17.77;;;-1.00;99.90;;;2.84;53.95;96946.06;5004726;28;20366;-55
2022/12/11 01:08:46;;;;;;;30.13;15.67;;;-0.90;99.90;;;2.88;53.92;96947.44;5004772;28;20053;-52
2022/12/11 01:11:16;;;;;;;40.40;17.83;;;-0.90;99.90;;;2.90;54.16;96954.25;5004525;28;20248;-54
2022/12/11 01:13:44;;;;;;;43.97;21.87;;;-0.90;99.90;;;2.88;53.96;96965.84;5004854;28;20047;-55
2022/12/11 01:16:14;;;;;;;41.97;21.77;;;-0.90;99.90;;;2.89;54.25;96960.47;5003707;28;20057;-57
2022/12/11 01:18:42;;;;;;;44.03;20.47;;;-0.90;99.90;;;2.90;54.08;96962.13;5004477;28;20045;-50
2022/12/11 01:21:12;;;;;;;33.33;17.30;;;-0.90;99.90;;;2.90;54.24;96966.56;5004205;28;20048;-55
2022/12/11 01:23:40;;;;;;;30.03;15.87;;;-0.80;99.90;;;2.92;54.42;96969.88;5004462;28;20200;-52
2022/12/11 01:26:13;;;;;;;26.27;14.40;;;-0.80;99.90;;;2.91;54.30;96963.81;5004564;28;20042;-54
2022/12/11 01:28:42;;;;;;;27.00;13.85;;;-0.90;99.90;;;2.93;54.61;96975.03;5003290;28;20042;-56
2022/12/11 01:31:15;;;;;;;27.73;14.23;;;-0.80;99.90;;;2.94;54.17;96975.84;5001772;28;20050;-53
2022/12/11 01:33:43;;;;;;;28.20;15.00;;;-0.80;99.90;;;2.98;54.05;96972.00;5002786;28;20046;-56
2022/12/11 01:36:15;;;;;;;31.27;17.47;;;-0.80;99.90;;;3.06;54.29;96984.50;5003113;28;20044;-52
2022/12/11 01:38:44;;;;;;;27.97;14.40;;;-0.70;99.90;;;3.07;54.41;96981.75;5003251;28;20045;-55
2022/12/11 01:41:12;;;;;;;30.87;16.00;;;-0.70;99.90;;;3.12;54.38;96979.56;5003743;28;20038;-56
2022/12/11 01:44:05;;;;;;;27.87;14.70;;;-0.70;99.90;;;3.09;54.59;96971.91;5002846;28;20056;-53
2022/12/11 01:46:35;;;;;;;25.13;13.80;;;-0.70;99.90;;;3.14;54.42;96975.00;5004027;28;20046;-51
2022/12/11 01:49:07;;;;;;;31.63;15.23;;;-0.70;99.90;;;3.14;54.47;96971.50;5004274;28;20245;-53
2022/12/11 01:51:44;;;;;;;32.87;15.90;;;-0.70;99.90;;;3.15;54.52;96981.09;5002579;28;20048;-54
2022/12/11 01:54:15;;;;;;;28.60;15.53;;;-0.70;99.90;;;3.18;54.41;96983.47;5002432;28;20058;-55
2022/12/11 01:56:46;;;;;;;28.70;15.03;;;-0.70;99.90;;;3.21;54.46;96985.81;5002906;28;20057;-55
2022/12/11 01:59:19;;;;;;;26.63;15.00;;;-0.70;99.90;;;3.20;54.36;96994.69;5002587;28;20042;-55
2022/12/11 02:02:00;;;;;;;24.20;15.18;;;-0.70;99.90;;;3.17;54.24;96989.69;5002124;28;20268;-56
2022/12/11 02:04:28;;;;;;;25.90;14.43;;;-0.60;99.90;;;3.19;54.51;96992.19;5003055;28;20064;-53
2022/12/11 02:06:56;;;;;;;24.70;13.97;;;-0.70;99.90;;;3.12;54.22;96991.84;5003524;28;20045;-52
2022/12/11 02:09:29;;;;;;;24.60;13.97;;;-0.70;99.90;;;3.06;54.45;96989.75;5003313;28;20058;-56
2022/12/11 02:12:21;;;;;;;29.70;15.50;;;-0.80;99.90;;;2.91;54.80;96987.47;5001822;28;20052;-54
2022/12/11 02:15:29;;;;;;;29.33;15.23;;;-0.90;99.90;;;2.90;54.86;96985.78;5003408;28;20042;-56
2022/12/11 02:18:12;;;;;;;31.80;17.13;;;-0.90;99.90;;;3.00;54.74;96992.91;5003377;28;20050;-54
2022/12/11 02:20:53;;;;;;;28.63;14.80;;;-0.80;99.90;;;2.97;54.75;96986.13;5001851;28;20233;-50
2022/12/11 02:23:31;;;;;;;30.03;16.03;;;-0.80;99.90;;;2.91;54.55;96982.22;5002330;28;20054;-56
2022/12/11 02:26:18;;;;;;;29.67;14.30;;;-0.90;99.90;;;2.80;54.74;96976.19;5002745;28;20046;-54
2022/12/11 02:28:57;;;;;;;24.13;12.43;;;-1.00;99.90;;;2.72;54.76;96980.28;5003168;28;20367;-52
2022/12/11 02:31:56;;;;;;;29.97;15.93;;;-1.10;99.90;;;2.54;54.66;96984.47;5001873;28;20046;-56
2022/12/11 02:34:48;;;;;;;24.53;15.03;;;-1.20;99.90;;;2.53;55.47;96982.78;4997234;28;20062;-56
2022/12/11 02:37:20;;;;;;;30.17;15.60;;;-1.20;99.90;;;2.51;55.29;96980.28;4997441;28;20261;-54
2022/12/11 02:39:52;;;;;;;27.30;15.00;;;-1.30;99.90;;;2.49;55.60;96976.13;5002143;28;20066;-56
2022/12/11 02:42:22;;;;;;;24.57;15.90;;;-1.30;99.90;;;2.39;55.54;96977.84;5001649;28;20046;-54
2022/12/11 02:44:52;;;;;;;26.87;15.33;;;-1.40;99.90;;;2.31;55.69;96981.09;5001809;28;20252;-55
2022/12/11 02:47:21;;;;;;;27.20;15.57;;;-1.40;99.90;;;2.12;56.28;96981.78;5001608;28;20072;-51
2022/12/11 02:49:51;;;;;;;26.23;14.93;;;-1.60;99.90;;;2.24;55.97;96979.94;5001525;28;20050;-53
2022/12/11 02:52:22;;;;;;;22.90;12.60;;;-1.50;99.90;;;2.00;56.49;96980.97;5001493;28;20050;-56
2022/12/11 02:54:53;;;;;;;29.57;15.03;;;-1.50;99.90;;;2.04;56.28;96978.94;5001178;28;20050;-55
2022/12/11 02:57:44;;;;;;;23.27;12.20;;;-1.60;99.90;;;1.74;56.71;96983.88;5001848;28;20294;-53
2022/12/11 03:00:12;;;;;;;25.40;15.13;;;-1.60;99.90;;;2.04;56.36;96979.75;4995049;28;20039;-53
2022/12/11 03:02:41;;;;;;;22.93;13.50;;;-1.70;99.90;;;1.88;56.62;96979.31;5002456;28;20047;-51
2022/12/11 03:05:11;;;;;;;24.93;12.80;;;-1.70;99.90;;;1.99;56.46;96981.09;5001421;28;20062;-53
2022/12/11 03:07:42;;;;;;;25.50;13.30;;;-1.60;99.90;;;2.01;56.13;96973.94;5001538;28;20050;-52
2022/12/11 03:10:14;;;;;;;25.57;14.40;;;-1.70;99.90;;;1.98;56.66;96972.38;5001133;28;20252;-54
2022/12/11 03:12:46;;;;;;;25.50;13.90;;;-1.60;99.90;;;1.90;56.24;96972.16;5001458;28;20054;-54
2022/12/11 03:15:29;;;;;;;22.53;12.80;;;-1.60;99.90;;;1.86;56.40;96975.97;5000648;28;20053;-55
2022/12/11 03:18:25;;;;;;;19.87;11.57;;;-1.70;99.90;;;1.86;56.69;96976.84;5001656;28;20042;-52
2022/12/11 03:21:15;;;;;;;22.97;12.30;;;-1.70;99.90;;;1.81;57.09;96973.75;5000598;28;20056;-54
2022/12/11 03:23:51;;;;;;;26.53;12.93;;;-1.70;99.90;;;1.88;56.67;96977.56;5001120;28;20046;-54
2022/12/11 03:26:23;;;;;;;23.27;13.47;;;-1.70;99.90;;;2.10;56.12;96983.69;5002491;28;20259;-52
2022/12/11 03:29:03;;;;;;;24.40;12.80;;;-1.60;99.90;;;2.25;55.71;96977.19;5000567;28;20077;-56
2022/12/11 03:31:42;;;;;;;22.57;11.50;;;-1.40;99.90;;;2.33;55.91;96973.94;5000956;28;20265;-55
2022/12/11 03:34:24;;;;;;;20.10;11.13;;;-1.30;99.90;;;2.43;56.01;96977.47;4994539;28;20218;-52
2022/12/11 03:36:54;;;;;;;24.27;13.43;;;-1.20;99.90;;;2.52;55.57;96978.47;5002112;28;20058;-55
2022/12/11 03:39:32;;;;;;;22.07;12.43;;;-1.20;99.90;;;2.59;55.07;96965.69;5001060;28;20042;-54
2022/12/11 03:42:08;;;;;;;23.73;12.87;;;-1.20;99.90;;;2.66;54.77;96967.66;5001253;28;20361;-53
2022/12/11 03:44:36;;;;;;;23.63;11.73;;;-1.10;99.90;;;2.71;55.17;96969.91;5001268;28;20044;-54
2022/12/11 03:47:07;;;;;;;18.97;11.63;;;-1.00;99.90;;;2.62;55.37;96970.66;4993319;28;20054;-53
2022/12/11 03:49:43;;;;;;;22.33;12.57;;;-1.10;99.90;;;2.69;55.14;96969.19;5000966;28;20046;-55
2022/12/11 03:52:14;;;;;;;22.40;11.50;;;-1.10;99.90;;;2.74;54.55;96973.09;4993969;28;20052;-55
2022/12/11 03:54:47;;;;;;;17.17;10.53;;;-1.10;99.90;;;2.76;55.01;96971.19;5001092;28;20046;-55
2022/12/11 03:57:21;;;;;;;20.00;11.68;;;-1.00;99.90;;;2.79;54.58;96962.19;5000941;28;20051;-52
2022/12/11 03:59:49;;;;;;;19.60;11.30;;;-1.00;99.90;;;2.81;54.67;96959.44;5000693;28;20050;-53
2022/12/11 04:02:17;;;;;;;18.33;11.50;;;-1.00;99.90;;;2.81;54.53;96955.03;5000797;28;20056;-53
2022/12/11 04:04:45;;;;;;;24.90;10.33;;;-1.00;99.90;;;2.85;54.63;96959.06;5001885;28;20052;-53
2022/12/11 04:07:13;;;;;;;19.70;11.77;;;-1.00;99.90;;;2.89;54.46;96955.22;5017170;28;20051;-53
2022/12/11 04:09:41;;;;;;;20.60;11.67;;;-0.90;99.90;;;2.90;54.38;96953.41;5001768;28;20052;-54
2022/12/11 04:12:09;;;;;;;17.43;10.33;;;-0.90;99.90;;;2.91;54.33;96947.22;5002216;28;20053;-53
2022/12/11 04:25:43;;;;;;;15.70;8.30;;;-0.90;99.90;;;2.91;53.92;96941.94;5001919;28;20079;-61
2022/12/11 04:28:11;;;;;;;15.73;8.37;;;-0.90;99.80;;;2.92;53.79;96938.34;5005773;28;20058;-61
2022/12/11 04:30:39;;;;;;;15.80;7.87;;;-0.80;97.70;;;2.89;53.46;96930.69;5019616;28;20049;-61
2022/12/11 04:33:06;;;;;;;14.20;8.03;;;-0.80;98.30;;;2.90;53.87;96929.75;5002178;28;20038;-61
2022/12/11 04:35:35;;;;;;;14.40;7.93;;;-0.80;98.40;;;2.86;53.56;96934.44;5005361;28;20054;-61
2022/12/11 04:38:03;;;;;;;14.70;7.87;;;-0.80;96.20;;;2.83;53.50;96932.09;5005146;28;20038;-61
2022/12/11 04:40:31;;;;;;;16.23;9.17;;;-0.90;97.00;;;2.85;53.10;96929.28;5003944;28;20054;-61
2022/12/11 04:42:58;;;;;;;13.00;7.33;;;-0.90;97.50;;;2.89;53.27;96925.44;5005043;28;20061;-61
2022/12/11 04:45:26;;;;;;;13.93;8.10;;;-0.90;97.10;;;2.83;53.65;96931.22;5004123;28;20275;-61
2022/12/11 04:47:54;;;;;;;15.33;7.63;;;-0.90;96.70;;;2.83;53.14;96924.19;5005119;28;20047;-61
2022/12/11 04:50:22;;;;;;;16.07;9.27;;;-0.90;94.70;;;2.82;52.82;96934.84;5004549;28;20053;-61
2022/12/11 04:52:49;;;;;;;15.27;8.20;;;-0.90;95.40;;;2.68;52.80;96939.47;5004969;28;20042;-61
2022/12/11 04:55:17;;;;;;;15.50;8.43;;;-1.10;95.70;;;2.64;52.70;96929.34;5005010;28;20034;-61
2022/12/11 04:57:45;;;;;;;16.20;9.00;;;-1.20;95.80;;;2.69;52.91;96927.97;5004609;28;20061;-61
2022/12/11 05:00:14;;;;;;;16.33;8.17;;;-1.10;96.30;;;2.70;52.64;96928.81;5004502;28;20045;-61
2022/12/11 05:02:41;;;;;;;16.83;8.30;;;-1.00;94.70;;;2.73;52.63;96923.28;5005066;28;20050;-61
2022/12/11 05:05:10;;;;;;;17.43;9.07;;;-1.10;95.30;;;2.74;52.37;96940.75;5003712;28;20065;-60
2022/12/11 05:07:39;;;;;;;16.87;9.13;;;-1.10;95.50;;;2.58;52.45;96949.09;5003553;28;20046;-61
2022/12/11 05:10:09;;;;;;;16.80;9.50;;;-1.20;94.30;;;2.41;53.02;96944.41;4996673;28;20398;-61
2022/12/11 05:12:36;;;;;;;17.53;10.20;;;-1.30;97.20;;;2.40;53.01;96951.44;5003534;28;20050;-61
2022/12/11 05:15:05;;;;;;;21.60;11.03;;;-1.40;98.30;;;2.33;53.49;96958.16;5003507;28;20052;-61
2022/12/11 05:17:33;;;;;;;19.37;10.83;;;-1.50;99.90;;;2.26;53.26;96955.19;5004770;28;20060;-61
2022/12/11 05:20:01;;;;;;;23.57;12.40;;;-1.50;99.90;;;2.23;53.41;96946.72;5004045;28;20257;-61
2022/12/11 05:22:30;;;;;;;23.03;12.37;;;-1.60;99.90;;;2.29;53.81;96944.44;5004128;28;20042;-61
2022/12/11 05:24:58;;;;;;;23.77;12.13;;;-1.50;99.90;;;2.38;53.50;96950.72;5004373;28;20197;-61
2022/12/11 05:27:26;;;;;;;22.20;13.10;;;-1.30;99.90;;;2.40;53.59;96953.22;5004799;28;20054;-60
2022/12/11 05:29:54;;;;;;;23.30;12.07;;;-1.30;99.90;;;2.37;53.90;96941.19;5004148;28;20060;-60
2022/12/11 05:32:26;;;;;;;22.23;13.93;;;-1.40;99.90;;;2.35;53.80;96943.13;5004097;28;20236;-61
2022/12/11 05:34:53;;;;;;;24.77;14.23;;;-1.40;99.90;;;2.32;53.76;96941.56;5004252;28;20042;-60
2022/12/11 05:37:21;;;;;;;24.03;13.10;;;-1.40;99.90;;;2.32;53.76;96945.97;5004329;28;20060;-61
2022/12/11 05:39:49;;;;;;;24.57;13.67;;;-1.40;99.90;;;2.28;53.93;96936.69;5003499;28;20278;-60
2022/12/11 05:42:17;;;;;;;27.67;14.37;;;-1.50;99.90;;;2.26;53.63;96938.63;5003437;28;20344;-60
2022/12/11 05:44:45;;;;;;;23.93;12.47;;;-1.50;99.90;;;2.23;53.52;96933.59;5003893;28;20354;-61
2022/12/11 05:47:13;;;;;;;27.97;14.70;;;-1.60;99.90;;;2.17;53.86;96935.78;5003904;28;20252;-61
2022/12/11 05:49:40;;;;;;;24.07;13.67;;;-1.60;99.90;;;2.12;53.58;96927.44;5003985;28;20455;-60
2022/12/11 05:52:08;;;;;;;29.37;15.27;;;-1.70;99.90;;;2.11;54.28;96931.06;5003516;28;20050;-60
2022/12/11 05:54:36;;;;;;;28.50;15.17;;;-1.60;99.90;;;2.13;54.41;96928.28;5003762;28;20080;-60
2022/12/11 05:57:04;;;;;;;29.77;15.47;;;-1.60;99.90;;;2.16;54.22;96928.03;5002708;28;20049;-61
2022/12/11 05:59:31;;;;;;;28.80;16.23;;;-1.60;99.90;;;2.21;53.81;96927.66;5003658;28;20042;-61
2022/12/11 06:01:59;;;;;;;29.17;13.97;;;-1.50;99.90;;;2.23;54.09;96923.09;5003029;28;20371;-61
2022/12/11 06:04:28;;;;;;;32.83;15.60;;;-1.50;99.90;;;2.28;53.96;96913.06;5003706;28;20229;-61
2022/12/11 06:06:55;;;;;;;29.80;14.47;;;-1.40;99.90;;;2.31;54.05;96929.41;5003510;28;20053;-61
2022/12/11 06:09:23;;;;;;;25.10;13.40;;;-1.40;99.90;;;2.28;54.21;96926.19;5003354;28;20042;-62
2022/12/11 06:11:51;;;;;;;27.73;14.53;;;-1.40;99.90;;;2.27;53.82;96921.88;5003175;28;20046;-61
2022/12/11 06:14:19;;;;;;;30.60;16.57;;;-1.50;99.90;;;2.29;54.38;96920.00;5003518;28;20053;-61
2022/12/11 06:16:46;;;;;;;33.77;16.70;;;-1.40;99.90;;;2.32;53.94;96924.97;5003234;28;20048;-61
2022/12/11 06:19:17;;;;;;;32.10;15.40;;;-1.40;99.90;;;2.34;53.88;96918.63;5003182;28;20216;-61
2022/12/11 06:21:47;;;;;;;28.37;15.63;;;-1.40;99.90;;;2.31;53.88;96910.19;5002192;28;20054;-61
2022/12/11 06:24:15;;;;;;;33.53;16.47;;;-1.40;99.90;;;2.28;53.85;96905.16;4978890;28;20056;-61
2022/12/11 06:26:43;;;;;;;31.67;15.03;;;-1.50;99.90;;;2.23;53.67;96905.56;5003273;28;20050;-61
2022/12/11 06:29:11;;;;;;;32.00;15.30;;;-1.50;99.90;;;2.15;53.93;96918.47;5003379;28;20042;-61
2022/12/11 06:31:39;;;;;;;27.53;15.37;;;-1.70;99.90;;;2.15;54.00;96921.97;5002969;28;20066;-61
2022/12/11 06:34:11;;;;;;;28.57;15.93;;;-1.70;99.90;;;2.14;54.11;96922.91;5003063;28;20053;-61
2022/12/11 06:36:39;;;;;;;35.03;15.77;;;-1.70;99.90;;;2.16;54.21;96922.78;5002033;28;20225;-61
2022/12/11 06:39:07;;;;;;;31.27;17.23;;;-1.70;99.90;;;2.14;54.55;96919.44;5002640;28;20046;-61
2022/12/11 06:41:35;;;;;;;28.47;14.17;;;-1.70;99.90;;;2.03;54.54;96917.69;5002438;28;20049;-61
2022/12/11 06:44:03;;;;;;;31.00;15.53;;;-1.70;99.90;;;1.75;55.26;96913.88;5001987;28;20050;-61
2022/12/11 06:46:30;;;;;;;27.97;15.30;;;-1.90;99.90;;;1.96;55.30;96913.94;5003104;28;20043;-61
2022/12/11 06:48:58;;;;;;;29.77;15.27;;;-1.90;99.90;;;2.09;55.00;96914.56;5002808;28;20248;-61
2022/12/11 06:51:26;;;;;;;30.50;15.30;;;-1.70;99.90;;;2.16;55.00;96917.53;5001772;28;20247;-61
2022/12/11 06:53:55;;;;;;;31.83;15.17;;;-1.60;99.90;;;2.23;54.78;96921.31;5002677;28;20042;-61
2022/12/11 06:56:24;;;;;;;37.63;17.20;;;-1.60;99.90;;;2.29;54.95;96917.34;5001566;28;20046;-61
2022/12/11 06:58:52;;;;;;;34.23;17.60;;;-1.50;99.90;;;2.36;54.51;96924.59;5003308;28;20236;-61
2022/12/11 07:01:25;;;;;;;135.07;46.67;;;-1.40;99.90;;;2.41;54.72;96928.63;5002296;28;20356;-61
2022/12/11 07:03:58;;;;;;;38.45;16.55;;;-1.40;99.90;;;2.41;54.70;96934.72;5002549;28;20372;-61
2022/12/11 07:06:27;;;;;;;30.20;16.40;;;-1.40;99.90;;;2.48;54.34;96941.13;5002512;28;20367;-61
2022/12/11 07:08:55;;;;;;;33.33;16.97;;;-1.40;99.90;;;2.52;54.62;96937.28;5000864;28;20050;-61
2022/12/11 07:11:23;;;;;;;28.40;15.60;;;-1.30;99.90;;;2.54;54.60;96942.44;5000990;28;20037;-61
2022/12/11 07:13:51;;;;;;;38.50;16.17;;;-1.30;99.90;;;2.56;54.09;96941.31;5002467;28;20052;-61
2022/12/11 07:16:19;;;;;;;31.50;14.43;;;-1.30;99.90;;;2.56;54.55;96936.06;5002564;28;20042;-61
2022/12/11 07:18:49;;;;;;;31.33;16.47;;;-1.30;99.90;;;2.60;54.07;96938.41;5002422;28;20042;-61
2022/12/11 07:21:19;;;;;;;28.23;14.93;;;-1.30;99.90;;;2.61;54.26;96933.03;4993293;28;20046;-61
2022/12/11 07:23:48;;;;;;;39.80;18.03;;;-1.30;99.90;;;2.57;54.47;96923.75;5002377;28;20378;-61
2022/12/11 07:26:19;;;;;;;33.97;15.60;;;-1.30;99.90;;;2.59;54.38;96927.09;5001427;28;20052;-61
2022/12/11 07:28:48;;;;;;;38.33;16.87;;;-1.30;99.90;;;2.59;54.22;96931.50;5002399;28;20051;-61
2022/12/11 07:31:20;;;;;;;28.80;15.47;;;-1.30;99.90;;;2.63;54.02;96936.38;5001853;28;20252;-61
2022/12/11 07:34:04;;;;;;;33.47;17.40;;;-1.30;99.90;;;2.65;54.33;96936.25;4997890;28;20056;-61
2022/12/11 07:36:34;;;;;;;28.65;15.95;;;-1.20;99.90;;;2.68;54.36;96936.81;4996661;28;20352;-61
2022/12/11 07:39:02;;;;;;;29.53;14.50;;;-1.20;99.90;;;2.74;54.09;96940.75;5001137;28;20332;-61
2022/12/11 07:41:30;;;;;;;31.20;15.27;;;-1.10;99.90;;;2.78;54.12;96941.31;5001734;28;20046;-61
2022/12/11 07:44:00;;;;;;;32.47;15.27;;;-1.10;99.90;;;2.80;54.51;96939.38;5002754;28;20069;-61
2022/12/11 07:46:31;;;;;;;28.63;14.93;;;-1.00;99.90;;;2.83;54.36;96945.22;5001911;28;20069;-61
2022/12/11 07:49:00;;;;;;;31.77;15.13;;;-1.00;99.90;;;2.88;54.30;96950.09;5001214;28;20046;-61
2022/12/11 07:51:35;;;;;;;36.00;18.00;;;-1.00;99.90;;;2.90;54.38;96942.91;5000721;28;20149;-61
2022/12/11 07:54:07;;;;;;;35.43;17.47;;;-0.90;99.90;;;2.94;53.79;96939.03;5002336;28;20352;-61
2022/12/11 07:56:35;;;;;;;34.47;18.37;;;-0.90;99.90;;;2.98;54.36;96937.81;5001332;28;20050;-61
2022/12/11 07:59:05;;;;;;;40.63;19.43;;;-0.90;99.90;;;3.01;54.37;96934.09;5002427;28;20245;-61
2022/12/11 08:01:36;;;;;;;30.20;15.23;;;-0.80;99.90;;;3.01;54.20;96939.38;4999753;28;20189;-61
2022/12/11 08:04:07;;;;;;;28.73;14.90;;;-0.90;99.90;;;3.04;54.10;96939.09;5003933;28;20356;-61
2022/12/11 08:06:38;;;;;;;35.30;17.00;;;-0.90;99.90;;;3.02;53.98;96936.56;5005069;28;20244;-61
2022/12/11 08:09:11;;;;;;;30.47;15.37;;;-0.90;99.90;;;3.00;54.17;96925.34;5003711;28;20235;-61
2022/12/11 08:11:51;;;;;;;48.10;22.80;;;-1.00;99.90;;;3.02;54.02;96939.22;5003512;28;20236;-61
2022/12/11 08:14:19;;;;;;;37.93;19.37;;;-0.90;99.90;;;3.03;54.15;96935.63;5002737;28;20272;-61
2022/12/11 08:16:48;;;;;;;36.17;19.17;;;-0.90;99.90;;;3.08;54.30;96936.06;5003759;28;20110;-61
2022/12/11 08:19:16;;;;;;;36.37;17.37;;;-0.70;99.90;;;3.10;54.04;96935.91;5004143;28;20046;-61
2022/12/11 08:21:44;;;;;;;37.07;19.00;;;-0.70;99.90;;;3.10;54.34;96939.41;5003937;28;20050;-61
2022/12/11 08:24:18;;;;;;;35.40;16.40;;;-0.80;99.90;;;3.10;54.17;96949.06;5003367;28;20050;-61
2022/12/11 08:26:47;;;;;;;39.63;18.98;;;-0.80;99.90;;;3.08;54.01;96937.84;5004395;28;20066;-61
2022/12/11 08:29:15;;;;;;;58.77;26.17;;;-0.80;99.90;;;3.08;53.84;96938.72;5004524;28;20042;-61
2022/12/11 08:31:43;;;;;;;43.30;21.90;;;-0.80;99.90;;;3.04;53.95;96934.66;5004080;28;20045;-61
2022/12/11 08:34:12;;;;;;;38.23;20.10;;;-0.80;99.90;;;3.03;53.94;96942.69;5003154;28;20069;-61
2022/12/11 08:36:41;;;;;;;35.73;18.50;;;-0.90;99.90;;;2.99;53.67;96936.84;5004609;28;20320;-61
2022/12/11 08:39:09;;;;;;;34.10;18.00;;;-0.90;99.90;;;2.94;53.88;96941.66;5002843;28;20042;-61
2022/12/11 08:41:37;;;;;;;33.33;17.67;;;-1.00;99.90;;;2.90;53.88;96937.63;5004399;28;20057;-61
2022/12/11 08:44:11;;;;;;;31.07;18.13;;;-1.00;99.90;;;2.88;54.05;96939.56;5004575;28;20050;-61
2022/12/11 08:46:43;;;;;;;29.60;16.80;;;-1.00;99.90;;;2.83;53.70;96944.38;5003495;28;20046;-61
2022/12/11 08:49:11;;;;;;;25.60;15.93;;;-1.10;99.90;;;2.81;53.56;96951.56;5003987;28;20046;-61
2022/12/11 08:51:38;;;;;;;27.80;15.07;;;-1.10;99.90;;;2.75;53.65;96948.50;4986509;28;20058;-61
2022/12/11 08:54:08;;;;;;;30.73;16.50;;;-1.20;99.90;;;2.66;53.67;96944.00;5004137;28;20052;-61
2022/12/11 08:56:36;;;;;;;35.33;17.00;;;-1.30;99.90;;;2.61;53.99;96946.19;5003817;28;20057;-61
2022/12/11 08:59:05;;;;;;;30.90;15.90;;;-1.30;99.90;;;2.55;53.87;96939.66;5004130;28;20073;-61
2022/12/11 09:01:33;;;;;;;32.33;16.87;;;-1.40;99.90;;;2.49;53.75;96934.09;5003654;28;20046;-61
2022/12/11 09:04:00;;;;;;;32.83;17.83;;;-1.40;99.90;;;2.48;54.42;96940.28;5003774;28;20048;-61
2022/12/11 09:06:29;;;;;;;34.37;17.00;;;-1.50;99.90;;;2.44;54.04;96937.06;5003358;28;20049;-61
2022/12/11 09:09:00;;;;;;;33.90;17.10;;;-1.50;99.90;;;2.45;53.93;96937.94;5002766;28;20274;-61
2022/12/11 09:11:32;;;;;;;34.27;16.23;;;-1.50;99.90;;;2.35;54.54;96927.34;5003416;28;20061;-61
2022/12/11 09:14:01;;;;;;;32.50;16.33;;;-1.60;99.90;;;2.35;54.22;96930.81;5001587;28;20064;-61
2022/12/11 09:16:38;;;;;;;;;;;-1.60;99.90;;;2.23;54.28;96933.59;5004130;28;20045;-61
2022/12/11 09:19:10;;;;;;;34.97;17.47;;;-1.60;99.90;;;2.34;54.24;96929.13;5003314;28;20168;-61
2022/12/11 09:21:39;;;;;;;35.77;17.83;;;-1.60;99.90;;;2.39;54.63;96925.31;5003489;28;20056;-61
2022/12/11 09:24:09;;;;;;;36.47;17.97;;;-1.60;99.90;;;2.44;54.67;96928.38;5003510;28;20046;-61
2022/12/11 09:26:37;;;;;;;39.03;17.33;;;-1.40;99.90;;;2.50;54.73;96927.84;5002429;28;20060;-61
2022/12/11 09:29:06;;;;;;;39.00;19.10;;;-1.40;99.90;;;2.56;54.78;96922.94;5002758;28;20363;-61
2022/12/11 09:31:36;;;;;;;30.77;15.03;;;-1.30;99.90;;;2.64;54.69;96924.09;5002878;28;20046;-61
2022/12/11 09:34:07;;;;;;;30.70;15.67;;;-1.20;99.90;;;2.68;54.64;96928.94;5003371;28;20046;-61
2022/12/11 09:36:38;;;;;;;169.53;56.67;;;-1.10;99.90;;;2.78;54.66;96931.63;5001890;28;20057;-61
2022/12/11 09:39:07;;;;;;;90.03;34.80;;;-1.00;99.90;;;2.85;54.35;96927.53;5004177;28;20099;-60
2022/12/11 09:41:49;;;;;;;38.47;19.73;;;-0.90;99.90;;;2.91;54.26;96929.63;5003845;28;20289;-59
2022/12/11 09:44:45;;;;;;;33.20;15.33;;;-0.90;99.90;;;2.86;54.22;96921.28;5003955;28;20053;-60
2022/12/11 09:47:26;;;;;;;25.83;14.40;;;-0.90;99.90;;;2.98;54.02;96927.28;4993107;28;20065;-59
2022/12/11 09:50:08;;;;;;;26.57;13.97;;;-0.90;99.90;;;3.00;54.05;96922.72;5003800;28;20050;-60
2022/12/11 09:52:46;;;;;;;43.90;19.50;;;-0.80;99.90;;;3.08;54.16;96924.69;5002927;28;20107;-60
2022/12/11 09:55:23;;;;;;;46.33;24.00;;;-0.80;99.90;;;3.15;53.85;96923.22;5001723;28;20050;-60
2022/12/11 09:58:13;;;;;;;34.50;20.50;;;-0.60;99.90;;;3.22;54.21;96920.88;5002929;28;20057;-60
2022/12/11 10:00:50;;;;;;;36.57;17.17;;;-0.60;99.90;;;3.27;54.14;96916.06;4997762;28;20249;-59
2022/12/11 10:03:33;;;;;;;39.77;19.00;;;-0.50;99.90;;;3.35;53.87;96919.69;5002268;28;20050;-59
2022/12/11 10:06:07;;;;;;;37.33;17.60;;;-0.50;99.90;;;3.43;53.71;96924.28;5003499;28;20241;-58
2022/12/11 10:09:10;;;;;;;37.70;19.48;;;-0.40;99.90;;;3.45;54.01;96921.50;5003678;28;20042;-61
2022/12/11 10:12:10;;;;;;;43.20;19.60;;;-0.30;99.90;;;3.45;53.85;96921.50;4987496;28;20092;-61
2022/12/11 10:15:09;;;;;;;30.60;16.87;;;-0.40;99.90;;;3.45;53.68;96918.88;4996216;28;20056;-60
2022/12/11 10:17:39;;;;;;;41.97;20.67;;;-0.30;99.90;;;3.54;54.15;96912.81;4997426;28;20370;-59
2022/12/11 10:20:35;;;;;;;29.53;16.90;;;-0.20;99.90;;;3.54;54.07;96905.75;5001464;28;20053;-58
2022/12/11 10:23:06;;;;;;;29.97;14.97;;;-0.10;99.90;;;3.68;53.64;96903.69;5002922;28;20251;-59
2022/12/11 10:25:53;;;;;;;33.60;17.97;;;-0.20;99.90;;;3.68;53.83;96895.78;5002229;28;20056;-59
2022/12/11 10:28:21;;;;;;;33.17;17.63;;;-0.10;99.90;;;3.73;53.48;96890.97;5001702;28;20336;-58
2022/12/11 10:31:45;;;;;;;28.63;16.93;;;-0.10;99.90;;;3.72;53.52;96890.13;4996654;28;20050;-58
2022/12/11 10:34:39;;;;;;;30.83;15.93;;;0.10;99.90;;;3.81;53.70;96880.56;4995475;28;20080;-59
2022/12/11 10:37:07;;;;;;;29.27;16.30;;;0.10;98.70;;;3.90;53.22;96882.38;4995447;28;20353;-58
2022/12/11 10:39:37;;;;;;;28.00;15.47;;;0.10;99.20;;;3.96;53.29;96883.63;4996010;28;20077;-59
2022/12/11 10:42:21;;;;;;;36.83;18.70;;;0.20;98.70;;;3.97;53.16;96879.19;4995319;28;20050;-59
2022/12/11 10:44:59;;;;;;;50.00;25.10;;;0.20;98.50;;;4.05;53.07;96888.06;5008644;28;20058;-59